sensor_id;sensor_type;location;lat;lon;timestamp;P1;durP1;ratioP1;P2;durP2;ratioP2
3817;SDS011;1924;48.078;11.516;2022-07-29T00:00:08;33.43;;;0.80;;
3817;SDS011;1924;48.078;11.516;2022-07-29T00:02:35;33.57;;;0.80;;
3817;SDS011;1924;48.078;11.516;2022-07-29T00:05:04;33.20;;;0.80;;
3817;SDS011;1924;48.078;11.516;2022-07-29T00:07:31;33.27;;;0.80;;
3817;SDS011;1924;48.078;11.516;2022-07-29T00:09:58;33.47;;;0.80;;
3817;SDS011;1924;48.078;11.516;2022-07-29T00:12:26;33.43;;;0.80;;
3817;SDS011;1924;48.078;11.516;2022-07-29T00:14:54;33.43;;;0.80;;
3817;SDS011;1924;48.078;11.516;2022-07-29T00:17:21;33.27;;;0.80;;
3817;SDS011;1924;48.078;11.516;2022-07-29T00:19:48;33.30;;;0.80;;
3817;SDS011;1924;48.078;11.516;2022-07-29T00:22:16;33.50;;;0.80;;
3817;SDS011;1924;48.078;11.516;2022-07-29T00:24:43;33.17;;;0.80;;
3817;SDS011;1924;48.078;11.516;2022-07-29T00:27:10;33.23;;;0.80;;
3817;SDS011;1924;48.078;11.516;2022-07-29T00:29:37;33.30;;;0.80;;
3817;SDS011;1924;48.078;11.516;2022-07-29T00:32:04;33.03;;;0.80;;
3817;SDS011;1924;48.078;11.516;2022-07-29T00:34:31;33.47;;;0.80;;
3817;SDS011;1924;48.078;11.516;2022-07-29T00:37:17;33.17;;;0.80;;
3817;SDS011;1924;48.078;11.516;2022-07-29T00:39:43;33.27;;;0.80;;
3817;SDS011;1924;48.078;11.516;2022-07-29T00:42:10;33.30;;;0.80;;
3817;SDS011;1924;48.078;11.516;2022-07-29T00:44:37;33.17;;;0.80;;
3817;SDS011;1924;48.078;11.516;2022-07-29T00:47:05;33.50;;;0.80;;
3817;SDS011;1924;48.078;11.516;2022-07-29T00:49:32;33.17;;;0.80;;
3817;SDS011;1924;48.078;11.516;2022-07-29T00:52:00;33.30;;;0.80;;
3817;SDS011;1924;48.078;11.516;2022-07-29T00:54:28;33.03;;;0.80;;
3817;SDS011;1924;48.078;11.516;2022-07-29T00:56:56;33.30;;;0.80;;
3817;SDS011;1924;48.078;11.516;2022-07-29T00:59:24;33.07;;;0.80;;
3817;SDS011;1924;48.078;11.516;2022-07-29T01:01:52;33.17;;;0.80;;
3817;SDS011;1924;48.078;11.516;2022-07-29T01:04:19;32.97;;;0.80;;
3817;SDS011;1924;48.078;11.516;2022-07-29T01:06:46;33.30;;;0.80;;
3817;SDS011;1924;48.078;11.516;2022-07-29T01:09:13;33.13;;;0.80;;
3817;SDS011;1924;48.078;11.516;2022-07-29T01:11:43;33.07;;;0.80;;
3817;SDS011;1924;48.078;11.516;2022-07-29T01:14:10;33.20;;;0.80;;
3817;SDS011;1924;48.078;11.516;2022-07-29T01:16:40;32.97;;;0.80;;
3817;SDS011;1924;48.078;11.516;2022-07-29T01:19:13;33.20;;;0.80;;
3817;SDS011;1924;48.078;11.516;2022-07-29T01:21:53;33.23;;;0.80;;
3817;SDS011;1924;48.078;11.516;2022-07-29T01:24:29;33.20;;;0.80;;
3817;SDS011;1924;48.078;11.516;2022-07-29T01:27:09;32.87;;;0.80;;
3817;SDS011;1924;48.078;11.516;2022-07-29T01:29:51;33.17;;;0.80;;
3817;SDS011;1924;48.078;11.516;2022-07-29T01:32:24;33.10;;;0.80;;
3817;SDS011;1924;48.078;11.516;2022-07-29T01:34:54;33.10;;;0.80;;
3817;SDS011;1924;48.078;11.516;2022-07-29T01:37:26;32.87;;;0.80;;
3817;SDS011;1924;48.078;11.516;2022-07-29T01:39:56;33.07;;;0.80;;
3817;SDS011;1924;48.078;11.516;2022-07-29T01:42:26;32.90;;;0.80;;
3817;SDS011;1924;48.078;11.516;2022-07-29T01:44:59;33.07;;;0.80;;
3817;SDS011;1924;48.078;11.516;2022-07-29T01:47:31;33.10;;;0.80;;
3817;SDS011;1924;48.078;11.516;2022-07-29T01:50:03;33.03;;;0.80;;
3817;SDS011;1924;48.078;11.516;2022-07-29T01:52:36;33.00;;;0.80;;
3817;SDS011;1924;48.078;11.516;2022-07-29T01:55:09;32.87;;;0.80;;
3817;SDS011;1924;48.078;11.516;2022-07-29T01:57:40;33.20;;;0.80;;
3817;SDS011;1924;48.078;11.516;2022-07-29T02:00:12;33.03;;;0.80;;
3817;SDS011;1924;48.078;11.516;2022-07-29T02:02:40;33.10;;;0.80;;
3817;SDS011;1924;48.078;11.516;2022-07-29T02:05:10;33.03;;;0.80;;
3817;SDS011;1924;48.078;11.516;2022-07-29T02:07:39;32.93;;;0.80;;
3817;SDS011;1924;48.078;11.516;2022-07-29T02:10:08;32.97;;;0.80;;
3817;SDS011;1924;48.078;11.516;2022-07-29T02:12:36;33.17;;;0.80;;
3817;SDS011;1924;48.078;11.516;2022-07-29T02:15:05;33.03;;;0.80;;
3817;SDS011;1924;48.078;11.516;2022-07-29T02:17:39;33.13;;;0.80;;
3817;SDS011;1924;48.078;11.516;2022-07-29T02:20:09;32.97;;;0.80;;
3817;SDS011;1924;48.078;11.516;2022-07-29T02:22:38;32.90;;;0.80;;
3817;SDS011;1924;48.078;11.516;2022-07-29T02:25:06;33.07;;;0.80;;
3817;SDS011;1924;48.078;11.516;2022-07-29T02:27:34;33.30;;;0.80;;
3817;SDS011;1924;48.078;11.516;2022-07-29T02:30:04;33.20;;;0.80;;
3817;SDS011;1924;48.078;11.516;2022-07-29T02:32:34;33.20;;;0.80;;
3817;SDS011;1924;48.078;11.516;2022-07-29T02:35:05;33.20;;;0.80;;
3817;SDS011;1924;48.078;11.516;2022-07-29T02:37:34;33.10;;;0.80;;
3817;SDS011;1924;48.078;11.516;2022-07-29T02:40:02;33.30;;;0.80;;
3817;SDS011;1924;48.078;11.516;2022-07-29T02:42:32;33.17;;;0.80;;
3817;SDS011;1924;48.078;11.516;2022-07-29T02:45:00;32.97;;;0.80;;
3817;SDS011;1924;48.078;11.516;2022-07-29T02:47:29;33.20;;;0.80;;
3817;SDS011;1924;48.078;11.516;2022-07-29T02:50:00;33.20;;;0.80;;
3817;SDS011;1924;48.078;11.516;2022-07-29T02:52:36;33.17;;;0.80;;
3817;SDS011;1924;48.078;11.516;2022-07-29T02:55:09;33.30;;;0.80;;
3817;SDS011;1924;48.078;11.516;2022-07-29T02:57:43;33.30;;;0.80;;
3817;SDS011;1924;48.078;11.516;2022-07-29T03:00:13;33.03;;;0.80;;
3817;SDS011;1924;48.078;11.516;2022-07-29T03:02:42;33.40;;;0.80;;
3817;SDS011;1924;48.078;11.516;2022-07-29T03:05:11;33.23;;;0.80;;
3817;SDS011;1924;48.078;11.516;2022-07-29T03:07:45;33.30;;;0.80;;
3817;SDS011;1924;48.078;11.516;2022-07-29T03:10:14;33.30;;;0.80;;
3817;SDS011;1924;48.078;11.516;2022-07-29T03:12:41;33.30;;;0.80;;
3817;SDS011;1924;48.078;11.516;2022-07-29T03:15:09;33.50;;;0.80;;
3817;SDS011;1924;48.078;11.516;2022-07-29T03:17:36;33.47;;;0.80;;
3817;SDS011;1924;48.078;11.516;2022-07-29T03:20:06;33.43;;;0.80;;
3817;SDS011;1924;48.078;11.516;2022-07-29T03:22:33;33.40;;;0.80;;
3817;SDS011;1924;48.078;11.516;2022-07-29T03:25:11;33.43;;;0.80;;
3817;SDS011;1924;48.078;11.516;2022-07-29T03:27:38;33.37;;;0.80;;
3817;SDS011;1924;48.078;11.516;2022-07-29T03:30:06;33.50;;;0.80;;
3817;SDS011;1924;48.078;11.516;2022-07-29T03:32:34;33.50;;;0.80;;
3817;SDS011;1924;48.078;11.516;2022-07-29T03:35:02;33.53;;;0.80;;
3817;SDS011;1924;48.078;11.516;2022-07-29T03:37:29;33.60;;;0.80;;
3817;SDS011;1924;48.078;11.516;2022-07-29T03:39:56;33.33;;;0.80;;
3817;SDS011;1924;48.078;11.516;2022-07-29T03:42:26;33.40;;;0.80;;
3817;SDS011;1924;48.078;11.516;2022-07-29T03:44:57;33.17;;;0.80;;
3817;SDS011;1924;48.078;11.516;2022-07-29T03:47:27;33.30;;;0.80;;
3817;SDS011;1924;48.078;11.516;2022-07-29T03:49:56;33.50;;;0.80;;
3817;SDS011;1924;48.078;11.516;2022-07-29T03:52:27;33.40;;;0.80;;
3817;SDS011;1924;48.078;11.516;2022-07-29T03:54:54;33.40;;;0.80;;
3817;SDS011;1924;48.078;11.516;2022-07-29T03:57:23;33.30;;;0.80;;
3817;SDS011;1924;48.078;11.516;2022-07-29T03:59:53;33.23;;;0.80;;
3817;SDS011;1924;48.078;11.516;2022-07-29T04:02:21;33.07;;;0.80;;
3817;SDS011;1924;48.078;11.516;2022-07-29T04:04:48;33.27;;;0.80;;
3817;SDS011;1924;48.078;11.516;2022-07-29T04:07:15;33.23;;;0.80;;
3817;SDS011;1924;48.078;11.516;2022-07-29T04:09:42;33.17;;;0.80;;
3817;SDS011;1924;48.078;11.516;2022-07-29T04:12:09;33.30;;;0.80;;
3817;SDS011;1924;48.078;11.516;2022-07-29T04:14:37;33.27;;;0.80;;
3817;SDS011;1924;48.078;11.516;2022-07-29T04:17:04;33.07;;;0.80;;
3817;SDS011;1924;48.078;11.516;2022-07-29T04:19:31;33.17;;;0.80;;
3817;SDS011;1924;48.078;11.516;2022-07-29T04:21:59;33.10;;;0.80;;
3817;SDS011;1924;48.078;11.516;2022-07-29T04:24:26;33.17;;;0.80;;
3817;SDS011;1924;48.078;11.516;2022-07-29T04:26:54;32.83;;;0.80;;
3817;SDS011;1924;48.078;11.516;2022-07-29T04:29:21;33.10;;;0.80;;
3817;SDS011;1924;48.078;11.516;2022-07-29T04:31:49;33.13;;;0.80;;
3817;SDS011;1924;48.078;11.516;2022-07-29T04:34:15;32.97;;;0.80;;
3817;SDS011;1924;48.078;11.516;2022-07-29T04:36:42;33.10;;;0.80;;
3817;SDS011;1924;48.078;11.516;2022-07-29T04:39:09;33.10;;;0.80;;
3817;SDS011;1924;48.078;11.516;2022-07-29T04:41:36;33.20;;;0.80;;
3817;SDS011;1924;48.078;11.516;2022-07-29T04:44:03;33.07;;;0.80;;
3817;SDS011;1924;48.078;11.516;2022-07-29T04:46:30;33.30;;;0.80;;
3817;SDS011;1924;48.078;11.516;2022-07-29T04:48:58;33.10;;;0.80;;
3817;SDS011;1924;48.078;11.516;2022-07-29T04:51:25;33.20;;;0.80;;
3817;SDS011;1924;48.078;11.516;2022-07-29T04:53:52;33.13;;;0.80;;
3817;SDS011;1924;48.078;11.516;2022-07-29T04:56:19;33.23;;;0.80;;
3817;SDS011;1924;48.078;11.516;2022-07-29T04:58:45;32.97;;;0.80;;
3817;SDS011;1924;48.078;11.516;2022-07-29T05:01:12;33.27;;;0.80;;
3817;SDS011;1924;48.078;11.516;2022-07-29T05:03:40;33.13;;;0.80;;
3817;SDS011;1924;48.078;11.516;2022-07-29T05:06:08;33.07;;;0.80;;
3817;SDS011;1924;48.078;11.516;2022-07-29T05:08:34;33.07;;;0.80;;
3817;SDS011;1924;48.078;11.516;2022-07-29T05:11:02;33.27;;;0.80;;
3817;SDS011;1924;48.078;11.516;2022-07-29T05:13:29;33.30;;;0.80;;
3817;SDS011;1924;48.078;11.516;2022-07-29T05:15:55;33.00;;;0.80;;
3817;SDS011;1924;48.078;11.516;2022-07-29T05:18:23;33.10;;;0.80;;
3817;SDS011;1924;48.078;11.516;2022-07-29T05:20:50;33.20;;;0.80;;
3817;SDS011;1924;48.078;11.516;2022-07-29T05:23:21;33.00;;;0.80;;
3817;SDS011;1924;48.078;11.516;2022-07-29T05:25:47;33.20;;;0.80;;
3817;SDS011;1924;48.078;11.516;2022-07-29T05:28:15;33.17;;;0.80;;
3817;SDS011;1924;48.078;11.516;2022-07-29T05:30:42;33.17;;;0.80;;
3817;SDS011;1924;48.078;11.516;2022-07-29T05:33:09;32.87;;;0.80;;
3817;SDS011;1924;48.078;11.516;2022-07-29T05:35:36;32.90;;;0.80;;
3817;SDS011;1924;48.078;11.516;2022-07-29T05:38:03;33.10;;;0.80;;
3817;SDS011;1924;48.078;11.516;2022-07-29T05:40:34;33.30;;;0.80;;
3817;SDS011;1924;48.078;11.516;2022-07-29T05:43:01;33.20;;;0.80;;
3817;SDS011;1924;48.078;11.516;2022-07-29T05:45:28;33.10;;;0.80;;
3817;SDS011;1924;48.078;11.516;2022-07-29T05:47:55;33.20;;;0.80;;
3817;SDS011;1924;48.078;11.516;2022-07-29T05:50:22;33.00;;;0.80;;
3817;SDS011;1924;48.078;11.516;2022-07-29T05:52:49;33.10;;;0.80;;
3817;SDS011;1924;48.078;11.516;2022-07-29T05:55:16;33.07;;;0.80;;
3817;SDS011;1924;48.078;11.516;2022-07-29T05:57:45;33.20;;;0.80;;
3817;SDS011;1924;48.078;11.516;2022-07-29T06:00:12;33.10;;;0.80;;
3817;SDS011;1924;48.078;11.516;2022-07-29T06:02:39;33.10;;;0.80;;
3817;SDS011;1924;48.078;11.516;2022-07-29T06:05:06;33.20;;;0.80;;
3817;SDS011;1924;48.078;11.516;2022-07-29T06:07:33;32.97;;;0.80;;
3817;SDS011;1924;48.078;11.516;2022-07-29T06:10:00;32.87;;;0.80;;
3817;SDS011;1924;48.078;11.516;2022-07-29T06:12:27;32.93;;;0.80;;
3817;SDS011;1924;48.078;11.516;2022-07-29T06:14:55;33.10;;;0.80;;
3817;SDS011;1924;48.078;11.516;2022-07-29T06:17:22;33.00;;;0.80;;
3817;SDS011;1924;48.078;11.516;2022-07-29T06:19:50;33.00;;;0.80;;
3817;SDS011;1924;48.078;11.516;2022-07-29T06:22:17;32.80;;;0.80;;
3817;SDS011;1924;48.078;11.516;2022-07-29T06:24:44;32.90;;;0.80;;
3817;SDS011;1924;48.078;11.516;2022-07-29T06:27:10;33.00;;;0.80;;
3817;SDS011;1924;48.078;11.516;2022-07-29T06:29:37;32.90;;;0.80;;
3817;SDS011;1924;48.078;11.516;2022-07-29T06:32:06;32.87;;;0.80;;
3817;SDS011;1924;48.078;11.516;2022-07-29T06:34:34;33.00;;;0.80;;
3817;SDS011;1924;48.078;11.516;2022-07-29T06:37:05;32.73;;;0.80;;
3817;SDS011;1924;48.078;11.516;2022-07-29T06:39:33;32.90;;;0.80;;
3817;SDS011;1924;48.078;11.516;2022-07-29T06:42:00;32.90;;;0.80;;
3817;SDS011;1924;48.078;11.516;2022-07-29T06:44:27;32.90;;;0.80;;
3817;SDS011;1924;48.078;11.516;2022-07-29T06:46:54;32.90;;;0.80;;
3817;SDS011;1924;48.078;11.516;2022-07-29T06:49:23;32.87;;;0.80;;
3817;SDS011;1924;48.078;11.516;2022-07-29T06:51:51;32.80;;;0.80;;
3817;SDS011;1924;48.078;11.516;2022-07-29T06:54:18;32.70;;;0.80;;
3817;SDS011;1924;48.078;11.516;2022-07-29T06:56:45;32.90;;;0.80;;
3817;SDS011;1924;48.078;11.516;2022-07-29T06:59:15;32.63;;;0.80;;
3817;SDS011;1924;48.078;11.516;2022-07-29T07:01:42;32.53;;;0.80;;
3817;SDS011;1924;48.078;11.516;2022-07-29T07:04:10;32.70;;;0.80;;
3817;SDS011;1924;48.078;11.516;2022-07-29T07:06:39;32.77;;;0.80;;
3817;SDS011;1924;48.078;11.516;2022-07-29T07:09:06;32.70;;;0.80;;
3817;SDS011;1924;48.078;11.516;2022-07-29T07:11:33;32.70;;;0.80;;
3817;SDS011;1924;48.078;11.516;2022-07-29T07:14:00;32.57;;;0.80;;
3817;SDS011;1924;48.078;11.516;2022-07-29T07:16:27;32.80;;;0.80;;
3817;SDS011;1924;48.078;11.516;2022-07-29T07:18:53;32.73;;;0.80;;
3817;SDS011;1924;48.078;11.516;2022-07-29T07:21:20;32.70;;;0.80;;
3817;SDS011;1924;48.078;11.516;2022-07-29T07:23:48;32.70;;;0.80;;
3817;SDS011;1924;48.078;11.516;2022-07-29T07:26:15;32.70;;;0.80;;
3817;SDS011;1924;48.078;11.516;2022-07-29T07:28:42;32.67;;;0.80;;
3817;SDS011;1924;48.078;11.516;2022-07-29T07:31:09;32.67;;;0.80;;
3817;SDS011;1924;48.078;11.516;2022-07-29T07:33:36;32.67;;;0.80;;
3817;SDS011;1924;48.078;11.516;2022-07-29T07:36:03;32.70;;;0.80;;
3817;SDS011;1924;48.078;11.516;2022-07-29T07:38:30;32.80;;;0.80;;
3817;SDS011;1924;48.078;11.516;2022-07-29T07:40:58;32.57;;;0.80;;
3817;SDS011;1924;48.078;11.516;2022-07-29T07:43:26;32.70;;;0.80;;
3817;SDS011;1924;48.078;11.516;2022-07-29T07:45:53;32.40;;;0.80;;
3817;SDS011;1924;48.078;11.516;2022-07-29T07:48:19;32.40;;;0.80;;
3817;SDS011;1924;48.078;11.516;2022-07-29T07:50:49;32.27;;;0.80;;
3817;SDS011;1924;48.078;11.516;2022-07-29T07:53:16;32.20;;;0.80;;
3817;SDS011;1924;48.078;11.516;2022-07-29T07:55:43;32.40;;;0.80;;
3817;SDS011;1924;48.078;11.516;2022-07-29T07:58:11;32.37;;;0.80;;
3817;SDS011;1924;48.078;11.516;2022-07-29T08:00:38;32.13;;;0.80;;
3817;SDS011;1924;48.078;11.516;2022-07-29T08:03:05;32.40;;;0.80;;
3817;SDS011;1924;48.078;11.516;2022-07-29T08:05:32;32.37;;;0.80;;
3817;SDS011;1924;48.078;11.516;2022-07-29T08:07:58;32.37;;;0.80;;
3817;SDS011;1924;48.078;11.516;2022-07-29T08:10:28;32.27;;;0.80;;
3817;SDS011;1924;48.078;11.516;2022-07-29T08:13:16;32.20;;;0.80;;
3817;SDS011;1924;48.078;11.516;2022-07-29T08:15:43;32.20;;;0.80;;
3817;SDS011;1924;48.078;11.516;2022-07-29T08:18:13;32.30;;;0.80;;
3817;SDS011;1924;48.078;11.516;2022-07-29T08:20:43;32.20;;;0.80;;
3817;SDS011;1924;48.078;11.516;2022-07-29T08:23:09;32.27;;;0.80;;
3817;SDS011;1924;48.078;11.516;2022-07-29T08:25:39;32.33;;;0.80;;
3817;SDS011;1924;48.078;11.516;2022-07-29T08:28:06;32.23;;;0.80;;
3817;SDS011;1924;48.078;11.516;2022-07-29T08:30:35;32.30;;;0.80;;
3817;SDS011;1924;48.078;11.516;2022-07-29T08:33:01;32.30;;;0.80;;
3817;SDS011;1924;48.078;11.516;2022-07-29T08:35:28;32.50;;;0.80;;
3817;SDS011;1924;48.078;11.516;2022-07-29T08:37:55;32.60;;;0.80;;
3817;SDS011;1924;48.078;11.516;2022-07-29T08:40:23;32.70;;;0.80;;
3817;SDS011;1924;48.078;11.516;2022-07-29T08:42:53;32.73;;;0.80;;
3817;SDS011;1924;48.078;11.516;2022-07-29T08:45:20;32.63;;;0.80;;
3817;SDS011;1924;48.078;11.516;2022-07-29T08:47:52;32.80;;;0.80;;
3817;SDS011;1924;48.078;11.516;2022-07-29T08:50:20;32.77;;;0.80;;
3817;SDS011;1924;48.078;11.516;2022-07-29T08:52:47;32.83;;;0.80;;
3817;SDS011;1924;48.078;11.516;2022-07-29T08:55:15;33.00;;;0.80;;
3817;SDS011;1924;48.078;11.516;2022-07-29T08:57:43;33.00;;;0.80;;
3817;SDS011;1924;48.078;11.516;2022-07-29T09:00:11;32.97;;;0.80;;
3817;SDS011;1924;48.078;11.516;2022-07-29T09:02:39;32.93;;;0.80;;
3817;SDS011;1924;48.078;11.516;2022-07-29T09:05:09;32.67;;;0.80;;
3817;SDS011;1924;48.078;11.516;2022-07-29T09:07:36;32.80;;;0.80;;
3817;SDS011;1924;48.078;11.516;2022-07-29T09:10:07;32.73;;;0.80;;
3817;SDS011;1924;48.078;11.516;2022-07-29T09:12:34;32.73;;;0.80;;
3817;SDS011;1924;48.078;11.516;2022-07-29T09:15:02;32.83;;;0.80;;
3817;SDS011;1924;48.078;11.516;2022-07-29T09:17:39;32.80;;;0.80;;
3817;SDS011;1924;48.078;11.516;2022-07-29T09:20:19;32.90;;;0.80;;
3817;SDS011;1924;48.078;11.516;2022-07-29T09:22:48;33.00;;;0.80;;
3817;SDS011;1924;48.078;11.516;2022-07-29T09:25:31;32.80;;;0.80;;
3817;SDS011;1924;48.078;11.516;2022-07-29T09:28:04;32.80;;;0.80;;
3817;SDS011;1924;48.078;11.516;2022-07-29T09:30:33;33.10;;;0.80;;
3817;SDS011;1924;48.078;11.516;2022-07-29T09:33:00;33.10;;;0.80;;
3817;SDS011;1924;48.078;11.516;2022-07-29T09:35:30;33.27;;;0.80;;
3817;SDS011;1924;48.078;11.516;2022-07-29T09:37:57;33.23;;;0.80;;
3817;SDS011;1924;48.078;11.516;2022-07-29T09:40:25;33.30;;;0.80;;
3817;SDS011;1924;48.078;11.516;2022-07-29T09:42:56;33.10;;;0.80;;
3817;SDS011;1924;48.078;11.516;2022-07-29T09:45:27;33.10;;;0.80;;
3817;SDS011;1924;48.078;11.516;2022-07-29T09:48:12;33.30;;;0.80;;
3817;SDS011;1924;48.078;11.516;2022-07-29T09:50:42;33.20;;;0.80;;
3817;SDS011;1924;48.078;11.516;2022-07-29T09:53:11;33.37;;;0.80;;
3817;SDS011;1924;48.078;11.516;2022-07-29T09:55:48;33.30;;;0.80;;
3817;SDS011;1924;48.078;11.516;2022-07-29T09:58:16;33.40;;;0.80;;
3817;SDS011;1924;48.078;11.516;2022-07-29T10:00:44;33.17;;;0.80;;
3817;SDS011;1924;48.078;11.516;2022-07-29T10:03:12;33.10;;;0.80;;
3817;SDS011;1924;48.078;11.516;2022-07-29T10:05:38;33.27;;;0.80;;
3817;SDS011;1924;48.078;11.516;2022-07-29T10:08:08;33.30;;;0.80;;
3817;SDS011;1924;48.078;11.516;2022-07-29T10:10:37;33.20;;;0.80;;
3817;SDS011;1924;48.078;11.516;2022-07-29T10:13:06;33.07;;;0.80;;
3817;SDS011;1924;48.078;11.516;2022-07-29T10:15:34;33.20;;;0.80;;
3817;SDS011;1924;48.078;11.516;2022-07-29T10:18:04;33.10;;;0.80;;
3817;SDS011;1924;48.078;11.516;2022-07-29T10:20:32;32.93;;;0.80;;
3817;SDS011;1924;48.078;11.516;2022-07-29T10:23:00;32.87;;;0.80;;
3817;SDS011;1924;48.078;11.516;2022-07-29T10:25:28;32.90;;;0.80;;
3817;SDS011;1924;48.078;11.516;2022-07-29T10:27:56;33.17;;;0.80;;
3817;SDS011;1924;48.078;11.516;2022-07-29T10:30:24;32.97;;;0.80;;
3817;SDS011;1924;48.078;11.516;2022-07-29T10:32:57;32.97;;;0.80;;
3817;SDS011;1924;48.078;11.516;2022-07-29T10:35:40;32.90;;;0.80;;
3817;SDS011;1924;48.078;11.516;2022-07-29T10:38:29;33.10;;;0.80;;
3817;SDS011;1924;48.078;11.516;2022-07-29T10:41:09;33.07;;;0.80;;
3817;SDS011;1924;48.078;11.516;2022-07-29T10:43:53;33.10;;;0.80;;
3817;SDS011;1924;48.078;11.516;2022-07-29T10:46:25;33.00;;;0.80;;
3817;SDS011;1924;48.078;11.516;2022-07-29T10:49:10;33.00;;;0.80;;
3817;SDS011;1924;48.078;11.516;2022-07-29T10:52:04;32.90;;;0.80;;
3817;SDS011;1924;48.078;11.516;2022-07-29T10:54:42;33.13;;;0.80;;
3817;SDS011;1924;48.078;11.516;2022-07-29T10:57:37;33.00;;;0.80;;
3817;SDS011;1924;48.078;11.516;2022-07-29T11:02:59;33.03;;;0.80;;
3817;SDS011;1924;48.078;11.516;2022-07-29T11:05:26;33.20;;;0.80;;
3817;SDS011;1924;48.078;11.516;2022-07-29T11:10:45;33.37;;;0.80;;
3817;SDS011;1924;48.078;11.516;2022-07-29T11:16:13;33.27;;;0.80;;
3817;SDS011;1924;48.078;11.516;2022-07-29T11:21:45;33.53;;;0.80;;
3817;SDS011;1924;48.078;11.516;2022-07-29T11:24:15;33.60;;;0.80;;
3817;SDS011;1924;48.078;11.516;2022-07-29T11:26:43;33.50;;;0.80;;
3817;SDS011;1924;48.078;11.516;2022-07-29T11:29:26;33.50;;;0.80;;
3817;SDS011;1924;48.078;11.516;2022-07-29T11:31:53;33.37;;;0.80;;
3817;SDS011;1924;48.078;11.516;2022-07-29T11:34:35;33.37;;;0.80;;
3817;SDS011;1924;48.078;11.516;2022-07-29T11:37:21;33.40;;;0.80;;
3817;SDS011;1924;48.078;11.516;2022-07-29T11:42:47;33.37;;;0.80;;
3817;SDS011;1924;48.078;11.516;2022-07-29T11:45:20;33.27;;;0.80;;
3817;SDS011;1924;48.078;11.516;2022-07-29T11:47:52;33.20;;;0.80;;
3817;SDS011;1924;48.078;11.516;2022-07-29T11:50:27;33.40;;;0.80;;
3817;SDS011;1924;48.078;11.516;2022-07-29T11:52:56;33.27;;;0.80;;
3817;SDS011;1924;48.078;11.516;2022-07-29T11:55:23;33.27;;;0.80;;
3817;SDS011;1924;48.078;11.516;2022-07-29T11:57:51;33.20;;;0.80;;
3817;SDS011;1924;48.078;11.516;2022-07-29T12:00:24;33.27;;;0.80;;
3817;SDS011;1924;48.078;11.516;2022-07-29T12:02:53;33.23;;;0.80;;
3817;SDS011;1924;48.078;11.516;2022-07-29T12:05:21;33.20;;;0.80;;
3817;SDS011;1924;48.078;11.516;2022-07-29T12:07:58;33.10;;;0.80;;
3817;SDS011;1924;48.078;11.516;2022-07-29T12:10:35;33.03;;;0.80;;
3817;SDS011;1924;48.078;11.516;2022-07-29T12:13:02;32.93;;;0.80;;
3817;SDS011;1924;48.078;11.516;2022-07-29T12:15:30;33.07;;;0.80;;
3817;SDS011;1924;48.078;11.516;2022-07-29T12:17:57;33.30;;;0.80;;
3817;SDS011;1924;48.078;11.516;2022-07-29T12:20:25;32.97;;;0.80;;
3817;SDS011;1924;48.078;11.516;2022-07-29T12:22:54;33.37;;;0.80;;
3817;SDS011;1924;48.078;11.516;2022-07-29T12:25:21;33.10;;;0.80;;
3817;SDS011;1924;48.078;11.516;2022-07-29T12:27:57;33.10;;;0.80;;
3817;SDS011;1924;48.078;11.516;2022-07-29T12:30:35;33.30;;;0.80;;
3817;SDS011;1924;48.078;11.516;2022-07-29T12:33:10;33.17;;;0.80;;
3817;SDS011;1924;48.078;11.516;2022-07-29T12:35:38;33.23;;;0.80;;
3817;SDS011;1924;48.078;11.516;2022-07-29T12:38:09;33.33;;;0.80;;
3817;SDS011;1924;48.078;11.516;2022-07-29T12:40:36;33.20;;;0.80;;
3817;SDS011;1924;48.078;11.516;2022-07-29T12:43:07;33.30;;;0.80;;
3817;SDS011;1924;48.078;11.516;2022-07-29T12:45:37;33.17;;;0.80;;
3817;SDS011;1924;48.078;11.516;2022-07-29T12:48:05;33.10;;;0.80;;
3817;SDS011;1924;48.078;11.516;2022-07-29T12:50:33;33.30;;;0.80;;
3817;SDS011;1924;48.078;11.516;2022-07-29T12:53:08;33.13;;;0.80;;
3817;SDS011;1924;48.078;11.516;2022-07-29T12:55:42;33.13;;;0.80;;
3817;SDS011;1924;48.078;11.516;2022-07-29T12:58:13;33.37;;;0.80;;
3817;SDS011;1924;48.078;11.516;2022-07-29T13:00:59;33.27;;;0.80;;
3817;SDS011;1924;48.078;11.516;2022-07-29T13:03:27;33.33;;;0.80;;
3817;SDS011;1924;48.078;11.516;2022-07-29T13:05:55;33.33;;;0.80;;
3817;SDS011;1924;48.078;11.516;2022-07-29T13:08:21;33.57;;;0.80;;
3817;SDS011;1924;48.078;11.516;2022-07-29T13:10:48;33.43;;;0.80;;
3817;SDS011;1924;48.078;11.516;2022-07-29T13:13:15;33.50;;;0.80;;
3817;SDS011;1924;48.078;11.516;2022-07-29T13:15:45;33.60;;;0.80;;
3817;SDS011;1924;48.078;11.516;2022-07-29T13:18:30;33.47;;;0.80;;
3817;SDS011;1924;48.078;11.516;2022-07-29T13:21:12;33.33;;;0.80;;
3817;SDS011;1924;48.078;11.516;2022-07-29T13:23:46;33.70;;;0.80;;
3817;SDS011;1924;48.078;11.516;2022-07-29T13:26:18;33.50;;;0.80;;
3817;SDS011;1924;48.078;11.516;2022-07-29T13:28:48;33.50;;;0.80;;
3817;SDS011;1924;48.078;11.516;2022-07-29T13:31:14;33.50;;;0.80;;
3817;SDS011;1924;48.078;11.516;2022-07-29T13:33:44;33.70;;;0.80;;
3817;SDS011;1924;48.078;11.516;2022-07-29T13:36:37;33.70;;;0.80;;
3817;SDS011;1924;48.078;11.516;2022-07-29T13:39:04;33.77;;;0.80;;
3817;SDS011;1924;48.078;11.516;2022-07-29T13:41:31;33.67;;;0.80;;
3817;SDS011;1924;48.078;11.516;2022-07-29T13:44:06;33.77;;;0.80;;
3817;SDS011;1924;48.078;11.516;2022-07-29T13:46:38;34.00;;;0.80;;
3817;SDS011;1924;48.078;11.516;2022-07-29T13:49:09;33.77;;;0.80;;
3817;SDS011;1924;48.078;11.516;2022-07-29T13:51:52;34.07;;;0.80;;
3817;SDS011;1924;48.078;11.516;2022-07-29T13:54:35;33.90;;;0.80;;
3817;SDS011;1924;48.078;11.516;2022-07-29T13:57:03;34.00;;;0.80;;
3817;SDS011;1924;48.078;11.516;2022-07-29T13:59:30;33.90;;;0.80;;
3817;SDS011;1924;48.078;11.516;2022-07-29T14:01:57;33.87;;;0.80;;
3817;SDS011;1924;48.078;11.516;2022-07-29T14:04:25;33.70;;;0.80;;
3817;SDS011;1924;48.078;11.516;2022-07-29T14:06:52;33.77;;;0.80;;
3817;SDS011;1924;48.078;11.516;2022-07-29T14:09:27;33.93;;;0.80;;
3817;SDS011;1924;48.078;11.516;2022-07-29T14:11:59;33.70;;;0.80;;
3817;SDS011;1924;48.078;11.516;2022-07-29T14:14:27;33.80;;;0.80;;
3817;SDS011;1924;48.078;11.516;2022-07-29T14:16:54;33.97;;;0.80;;
3817;SDS011;1924;48.078;11.516;2022-07-29T14:19:22;33.90;;;0.80;;
3817;SDS011;1924;48.078;11.516;2022-07-29T14:21:50;34.00;;;0.80;;
3817;SDS011;1924;48.078;11.516;2022-07-29T14:24:26;33.87;;;0.80;;
3817;SDS011;1924;48.078;11.516;2022-07-29T14:26:53;33.97;;;0.80;;
3817;SDS011;1924;48.078;11.516;2022-07-29T14:29:21;34.00;;;0.80;;
3817;SDS011;1924;48.078;11.516;2022-07-29T14:31:57;33.73;;;0.80;;
3817;SDS011;1924;48.078;11.516;2022-07-29T14:34:24;33.90;;;0.80;;
3817;SDS011;1924;48.078;11.516;2022-07-29T14:36:53;33.87;;;0.80;;
3817;SDS011;1924;48.078;11.516;2022-07-29T14:39:21;33.73;;;0.80;;
3817;SDS011;1924;48.078;11.516;2022-07-29T14:41:59;33.73;;;0.80;;
3817;SDS011;1924;48.078;11.516;2022-07-29T14:44:25;33.90;;;0.80;;
3817;SDS011;1924;48.078;11.516;2022-07-29T14:46:55;34.00;;;0.80;;
3817;SDS011;1924;48.078;11.516;2022-07-29T14:49:22;33.90;;;0.80;;
3817;SDS011;1924;48.078;11.516;2022-07-29T14:51:49;33.80;;;0.80;;
3817;SDS011;1924;48.078;11.516;2022-07-29T14:54:18;33.73;;;0.80;;
3817;SDS011;1924;48.078;11.516;2022-07-29T14:56:48;33.80;;;0.80;;
3817;SDS011;1924;48.078;11.516;2022-07-29T14:59:21;33.87;;;0.80;;
3817;SDS011;1924;48.078;11.516;2022-07-29T15:01:48;33.80;;;0.80;;
3817;SDS011;1924;48.078;11.516;2022-07-29T15:04:15;33.87;;;0.80;;
3817;SDS011;1924;48.078;11.516;2022-07-29T15:06:42;33.80;;;0.80;;
3817;SDS011;1924;48.078;11.516;2022-07-29T15:09:09;33.90;;;0.80;;
3817;SDS011;1924;48.078;11.516;2022-07-29T15:11:37;33.67;;;0.80;;
3817;SDS011;1924;48.078;11.516;2022-07-29T15:14:04;33.77;;;0.80;;
3817;SDS011;1924;48.078;11.516;2022-07-29T15:16:31;33.87;;;0.80;;